Time;durP1;ratioP1;P1;durP2;ratioP2;P2;SDS_P1;SDS_P2;PMS_P1;PMS_P2;Temp;Humidity;BMP_temperature;BMP_pressure;BME280_temperature;BME280_humidity;BME280_pressure;Samples;Min_cycle;Max_cycle;Signal;HPM_P1;HPM_P2
2023/06/04 00:02:03;;;;;;;;;5.50;5.25;;;;;23.07;34.46;101201.19;4939276;28;52462;-58
2023/06/04 00:04:28;;;;;;;;;6.25;4.50;;;;;23.06;34.04;101193.31;4957378;28;45560;-52
2023/06/04 00:06:57;;;;;;;;;4.00;4.00;;;;;23.05;34.27;101197.78;4920133;28;1090198;-65
2023/06/04 00:09:22;;;;;;;;;6.25;5.00;;;;;23.05;33.84;101196.91;4940645;28;45754;-57
2023/06/04 00:11:47;;;;;;;;;6.75;4.00;;;;;23.04;34.44;101204.00;4957591;28;45321;-64
2023/06/04 00:14:14;;;;;;;;;8.50;6.00;;;;;23.04;34.12;101193.41;4958158;28;45501;-63
2023/06/04 00:16:40;;;;;;;;;4.00;4.00;;;;;23.04;34.10;101198.72;4957930;28;46638;-64
2023/06/04 00:19:06;;;;;;;;;4.00;3.50;;;;;23.02;33.80;101187.38;4958126;28;45427;-61
2023/06/04 00:21:32;;;;;;;;;4.50;4.00;;;;;23.03;33.98;101198.81;4958427;28;45453;-65
2023/06/04 00:23:59;;;;;;;;;7.00;4.25;;;;;23.03;34.32;101204.09;4958194;28;45691;-66
2023/06/04 00:26:24;;;;;;;;;5.50;5.50;;;;;23.01;33.77;101209.47;4957810;28;45463;-66
2023/06/04 00:28:50;;;;;;;;;7.25;4.50;;;;;23.00;34.32;101208.63;4957491;28;45415;-65
2023/06/04 00:31:15;;;;;;;;;4.00;4.00;;;;;22.98;33.76;101204.38;4957995;28;45179;-65
2023/06/04 00:33:40;;;;;;;;;7.50;6.00;;;;;22.98;33.92;101202.56;4958193;28;45303;-66
2023/06/04 00:36:06;;;;;;;;;5.00;4.00;;;;;22.97;33.88;101205.31;4956470;28;48223;-65
2023/06/04 00:38:32;;;;;;;;;5.75;4.00;;;;;22.96;33.56;101199.16;4957976;28;45402;-65
2023/06/04 00:40:57;;;;;;;;;6.50;4.00;;;;;22.95;34.01;101204.56;4957777;28;45294;-64
2023/06/04 00:43:25;;;;;;;;;6.50;4.25;;;;;22.96;34.18;101208.91;4957817;28;45377;-64
2023/06/04 00:45:52;;;;;;;;;5.25;4.00;;;;;22.95;33.74;101205.38;4957548;28;46518;-66
2023/06/04 00:48:17;;;;;;;;;4.00;4.00;;;;;22.96;34.15;101208.91;4957656;28;45423;-59
2023/06/04 00:50:42;;;;;;;;;4.75;4.75;;;;;22.97;33.87;101205.31;4957585;28;45426;-65
2023/06/04 00:53:10;;;;;;;;;5.75;5.00;;;;;22.96;33.87;101199.16;4957788;28;45436;-64
2023/06/04 00:55:36;;;;;;;;;5.50;4.00;;;;;22.96;33.85;101208.91;4957373;28;46579;-58
2023/06/04 00:58:03;;;;;;;;;7.50;3.00;;;;;22.95;33.71;101202.75;4940061;28;45329;-63
2023/06/04 01:00:30;;;;;;;;;5.25;4.00;;;;;22.96;33.80;101208.91;4940166;28;45379;-64
2023/06/04 01:02:58;;;;;;;;;4.75;4.75;;;;;22.95;34.19;101202.75;4957690;28;45350;-64
2023/06/04 01:05:36;;;;;;;;;4.75;4.00;;;;;22.96;33.99;101201.81;4957285;28;47149;-63
2023/06/04 01:08:02;;;;;;;;;10.50;6.00;;;;;22.96;34.12;101209.72;4957556;28;45370;-65
2023/06/04 01:10:27;;;;;;;;;4.00;4.00;;;;;22.96;33.74;101219.47;4957262;28;45356;-62
2023/06/04 01:12:52;;;;;;;;;4.50;3.00;;;;;22.93;33.57;101198.50;4939542;28;55459;-65
2023/06/04 01:15:17;;;;;;;;;4.50;4.50;;;;;22.95;33.73;101207.19;4957046;28;53067;-60
2023/06/04 01:17:51;;;;;;;;;5.00;4.25;;;;;22.95;33.35;101205.38;4957113;28;45263;-65
2023/06/04 01:20:25;;;;;;;;;5.25;4.25;;;;;22.95;33.89;101212.47;4957241;28;45335;-57
2023/06/04 01:22:56;;;;;;;;;5.00;5.00;;;;;22.95;33.79;101209.84;4959957;28;45366;-55
2023/06/04 01:25:31;;;;;;;;;4.25;4.25;;;;;22.95;33.62;101201.91;4959791;28;46572;-56
2023/06/04 01:27:58;;;;;;;;;5.25;3.50;;;;;22.94;33.64;101206.31;4960590;28;45703;-55
2023/06/04 01:30:29;;;;;;;;;5.75;4.00;;;;;22.95;34.08;101200.09;4943307;28;45531;-60
2023/06/04 01:32:55;;;;;;;;;4.25;4.25;;;;;22.95;34.00;101200.09;4960791;28;45361;-63
2023/06/04 01:35:22;;;;;;;;;3.25;3.25;;;;;22.95;33.75;101212.47;4960229;28;45435;-62
2023/06/04 01:37:47;;;;;;;;;4.00;4.00;;;;;22.95;33.77;101201.91;4960537;28;45774;-62
2023/06/04 01:40:13;;;;;;;;;4.00;4.00;;;;;22.94;33.55;101200.22;4959384;28;45358;-62
2023/06/04 01:42:38;;;;;;;;;4.50;4.00;;;;;22.94;33.70;101206.31;4960725;28;45602;-55
2023/06/04 01:45:04;;;;;;;;;4.25;4.25;;;;;22.93;33.72;101198.50;4960637;28;46353;-63
2023/06/04 01:47:30;;;;;;;;;4.00;4.00;;;;;22.93;33.64;101199.34;4960442;28;45399;-57
2023/06/04 01:49:55;;;;;;;;;4.25;4.25;;;;;22.93;34.13;101209.91;4960434;28;45331;-59
2023/06/04 01:52:21;;;;;;;;;6.50;4.00;;;;;22.92;33.37;101202.94;4960628;28;45330;-63
2023/06/04 01:54:48;;;;;;;;;8.00;5.00;;;;;22.94;34.03;101213.41;4960068;28;45338;-61
2023/06/04 01:57:14;;;;;;;;;3.00;3.00;;;;;22.92;33.90;101207.38;4960269;28;45797;-65
2023/06/04 01:59:41;;;;;;;;;5.25;3.25;;;;;22.92;33.83;101207.38;4960602;28;45287;-55
2023/06/04 02:02:06;;;;;;;;;2.75;2.75;;;;;22.92;33.75;101212.66;4960775;28;45615;-56
2023/06/04 02:04:31;;;;;;;;;5.00;3.50;;;;;22.90;33.69;101203.97;4960005;28;45465;-60
2023/06/04 02:06:59;;;;;;;;;6.00;3.50;;;;;22.90;33.58;101214.53;4959740;28;45468;-64
2023/06/04 02:09:25;;;;;;;;;5.75;5.25;;;;;22.88;33.61;101211.13;4942712;28;45355;-61
2023/06/04 02:11:51;;;;;;;;;4.25;3.00;;;;;22.87;33.59;101210.28;4960106;28;45560;-64
2023/06/04 02:14:16;;;;;;;;;3.25;3.00;;;;;22.87;33.60;101220.84;4959924;28;45491;-60
2023/06/04 02:16:41;;;;;;;;;3.75;3.00;;;;;22.85;33.59;101212.16;4959866;28;45279;-61
2023/06/04 02:19:07;;;;;;;;;4.00;4.00;;;;;22.84;33.54;101219.25;4960320;28;45346;-63
2023/06/04 02:21:32;;;;;;;;;5.75;2.00;;;;;22.85;33.32;101222.75;4960217;28;45596;-65
2023/06/04 02:23:58;;;;;;;;;4.25;4.00;;;;;22.83;33.92;101214.91;4959839;28;46660;-64
2023/06/04 02:26:24;;;;;;;;;3.00;3.00;;;;;22.83;33.41;101216.69;4959800;28;45353;-61
2023/06/04 02:28:50;;;;;;;;;4.00;4.00;;;;;22.82;33.29;101213.22;4959954;28;45526;-65
2023/06/04 02:31:15;;;;;;;;;3.00;3.00;;;;;22.79;33.58;101215.19;4959940;28;45409;-65
2023/06/04 02:33:41;;;;;;;;;3.75;3.75;;;;;22.79;33.44;101221.31;4941482;28;47849;-64
2023/06/04 02:36:06;;;;;;;;;3.50;3.00;;;;;22.80;33.47;101217.72;4942369;28;45707;-65
2023/06/04 02:38:33;;;;;;;;;1.50;1.50;;;;;22.80;33.38;101224.81;4959808;28;45430;-65
2023/06/04 02:40:58;;;;;;;;;5.50;3.25;;;;;22.81;33.16;101221.25;4959883;28;45356;-65
2023/06/04 02:43:23;;;;;;;;;4.00;3.00;;;;;22.79;33.58;101223.94;4959438;28;48528;-63
2023/06/04 02:45:49;;;;;;;;;2.50;2.50;;;;;22.79;33.26;101216.03;4942098;28;45383;-57
2023/06/04 02:48:14;;;;;;;;;5.50;2.50;;;;;22.79;33.19;101221.31;4959071;28;53646;-54
2023/06/04 02:50:42;;;;;;;;;4.50;3.50;;;;;22.79;33.69;101221.31;4960111;28;45571;-64
2023/06/04 02:53:07;;;;;;;;;5.00;2.75;;;;;22.80;33.68;101217.72;4959586;28;46280;-65
2023/06/04 02:55:33;;;;;;;;;3.50;3.00;;;;;22.79;33.47;101223.94;4959514;28;45430;-65
2023/06/04 02:58:00;;;;;;;;;4.75;3.00;;;;;22.79;33.11;101223.94;4959484;28;45535;-65
2023/06/04 03:00:26;;;;;;;;;3.00;3.00;;;;;22.80;33.37;101227.47;4959593;28;45263;-64
2023/06/04 03:02:51;;;;;;;;;4.50;3.75;;;;;22.80;33.61;101228.31;4959175;28;46467;-64
2023/06/04 03:05:17;;;;;;;;;4.00;3.25;;;;;22.80;33.44;101228.31;4959183;28;45333;-63
2023/06/04 03:07:44;;;;;;;;;4.00;4.00;;;;;22.80;33.50;101230.94;4959618;28;45358;-61
2023/06/04 03:10:11;;;;;;;;;5.00;4.00;;;;;22.80;33.03;101216.88;4959651;28;45497;-61
2023/06/04 03:12:37;;;;;;;;;3.25;3.00;;;;;22.80;33.36;101222.19;4959116;28;46868;-64
2023/06/04 03:15:03;;;;;;;;;4.00;4.00;;;;;22.78;33.32;101216.13;4957871;28;45684;-65
2023/06/04 03:17:30;;;;;;;;;5.75;4.00;;;;;22.78;33.54;101216.13;4941763;28;45862;-64
2023/06/04 03:19:56;;;;;;;;;3.00;3.00;;;;;22.77;33.43;101222.34;4959264;28;45593;-64
2023/06/04 03:22:21;;;;;;;;;5.75;2.50;;;;;22.76;33.40;101213.59;4958772;28;46418;-64
2023/06/04 03:24:47;;;;;;;;;6.50;4.00;;;;;22.77;33.25;101215.25;4958962;28;45485;-63
2023/06/04 03:27:12;;;;;;;;;2.75;2.75;;;;;22.76;33.32;101210.06;4959291;28;45343;-63
2023/06/04 03:29:37;;;;;;;;;7.25;4.00;;;;;22.77;33.21;101215.25;4959072;28;45536;-65
2023/06/04 03:32:03;;;;;;;;;4.00;3.00;;;;;22.77;33.18;101220.53;4958611;28;46519;-65
2023/06/04 03:34:31;;;;;;;;;4.00;3.00;;;;;22.76;33.34;101216.22;4941336;28;45543;-66
2023/06/04 03:36:57;;;;;;;;;5.00;5.00;;;;;22.76;33.11;101220.66;4958212;28;45273;-66
2023/06/04 03:39:22;;;;;;;;;4.50;3.50;;;;;22.75;33.46;101211.88;4959097;28;45649;-66
2023/06/04 03:41:48;;;;;;;;;3.75;3.75;;;;;22.75;33.17;101214.53;4941185;28;47553;-64
2023/06/04 03:44:17;;;;;;;;;4.25;3.00;;;;;22.75;33.25;101213.66;4958727;28;45640;-63
2023/06/04 03:46:44;;;;;;;;;3.25;3.00;;;;;22.76;33.50;101218.00;4958905;28;45315;-58
2023/06/04 03:49:10;;;;;;;;;2.25;2.25;;;;;22.75;33.45;101218.94;4958749;28;45233;-61
2023/06/04 03:51:36;;;;;;;;;0.00;0.00;;;;;22.73;33.18;101212.88;4958545;28;47510;-65
2023/06/04 03:54:02;;;;;;;;;3.00;3.00;;;;;22.76;33.44;101224.16;4958589;28;45184;-65
2023/06/04 03:56:28;;;;;;;;;3.00;2.00;;;;;22.72;33.02;101214.69;4958651;28;45291;-65
2023/06/04 03:58:53;;;;;;;;;2.00;1.00;;;;;22.75;33.47;101227.72;4958712;28;45165;-65
2023/06/04 04:01:19;;;;;;;;;4.00;4.00;;;;;22.74;33.21;101226.03;4958197;28;46897;-65
2023/06/04 04:03:49;;;;;;;;;3.50;3.50;;;;;22.73;33.15;101232.25;4958720;28;45371;-65
2023/06/04 04:06:14;;;;;;;;;4.00;3.00;;;;;22.73;33.27;101226.09;4941263;28;45554;-48
2023/06/04 04:08:42;;;;;;;;;2.75;2.75;;;;;22.72;33.41;101233.19;4958608;28;45268;-57
2023/06/04 04:11:08;;;;;;;;;3.75;3.75;;;;;22.72;33.05;101232.31;4958248;28;46660;-60
2023/06/04 04:13:33;;;;;;;;;3.50;3.25;;;;;22.71;33.39;101231.50;4940810;28;46090;-64
2023/06/04 04:15:58;;;;;;;;;6.25;3.50;;;;;22.72;33.19;101237.59;4958363;28;45212;-65
2023/06/04 04:18:24;;;;;;;;;2.25;2.00;;;;;22.70;33.30;101240.34;4958574;28;45191;-65
2023/06/04 04:20:50;;;;;;;;;3.00;2.25;;;;;22.69;33.13;101242.16;4958175;28;45535;-61
2023/06/04 04:23:16;;;;;;;;;2.75;2.75;;;;;22.70;33.14;101240.34;4958404;28;45270;-55
2023/06/04 04:25:43;;;;;;;;;2.00;2.00;;;;;22.70;33.16;101240.34;4958225;28;45361;-59
2023/06/04 04:28:09;;;;;;;;;2.00;2.00;;;;;22.70;33.26;101241.22;4957101;28;45547;-59
2023/06/04 04:30:35;;;;;;;;;5.00;4.00;;;;;22.70;33.00;101240.34;4958015;28;45449;-58
2023/06/04 04:33:01;;;;;;;;;3.00;3.00;;;;;22.68;33.02;101232.53;4957884;28;45366;-63
2023/06/04 04:35:26;;;;;;;;;4.75;3.00;;;;;22.69;32.82;101236.00;4958083;28;45458;-58
2023/06/04 04:37:52;;;;;;;;;3.00;3.00;;;;;22.70;33.13;101235.06;4958202;28;45300;-55
2023/06/04 04:40:17;;;;;;;;;4.25;2.00;;;;;22.68;33.13;101240.44;4958139;28;46263;-62
2023/06/04 04:42:43;;;;;;;;;3.00;3.00;;;;;22.68;33.14;101242.22;4957867;28;45521;-53
2023/06/04 04:45:09;;;;;;;;;3.75;2.75;;;;;22.69;32.95;101239.50;4957871;28;45402;-54
2023/06/04 04:47:34;;;;;;;;;3.00;3.00;;;;;22.68;32.97;101247.50;4958281;28;45220;-54
2023/06/04 04:50:00;;;;;;;;;3.25;3.25;;;;;22.68;33.02;101247.50;4957065;28;59250;-51
2023/06/04 04:52:25;;;;;;;;;3.00;3.00;;;;;22.67;33.21;101251.09;4957643;28;45414;-58
2023/06/04 04:54:55;;;;;;;;;4.25;2.50;;;;;22.68;32.72;101251.03;4957690;28;45454;-51
2023/06/04 04:57:20;;;;;;;;;2.00;2.00;;;;;22.66;32.99;101244.09;4957173;28;45419;-51
2023/06/04 04:59:45;;;;;;;;;3.00;2.00;;;;;22.65;33.18;101247.72;4957802;28;46033;-52
2023/06/04 05:02:11;;;;;;;;;2.00;2.00;;;;;22.65;33.08;101247.72;4957143;28;55241;-55
2023/06/04 05:04:36;;;;;;;;;4.67;3.00;;;;;22.65;33.03;101251.19;4957042;28;61202;-50
2023/06/04 05:07:01;;;;;;;;;5.00;3.50;;;;;22.65;33.15;101253.00;4957839;28;45632;-60
2023/06/04 05:09:27;;;;;;;;;5.00;2.75;;;;;22.63;33.05;101252.22;4957487;28;45379;-60
2023/06/04 05:11:52;;;;;;;;;3.00;3.00;;;;;22.63;32.75;101258.34;4957041;28;54429;-60
2023/06/04 05:14:17;;;;;;;;;2.00;1.25;;;;;22.63;32.91;101252.22;4957813;28;45356;-62
2023/06/04 05:16:44;;;;;;;;;4.00;3.25;;;;;22.64;33.02;101259.22;4957689;28;45185;-63
2023/06/04 05:19:10;;;;;;;;;3.00;2.50;;;;;22.63;33.10;101258.34;4957446;28;46247;-58
2023/06/04 05:21:36;;;;;;;;;4.00;3.00;;;;;22.64;32.87;101253.94;4957245;28;45373;-60
2023/06/04 05:24:02;;;;;;;;;4.25;4.00;;;;;22.64;32.70;101257.41;4940294;28;45486;-63
2023/06/04 05:26:29;;;;;;;;;3.00;3.00;;;;;22.65;32.85;101258.28;4957606;28;45648;-54
2023/06/04 05:28:54;;;;;;;;;3.25;3.25;;;;;22.64;33.25;101264.50;4957107;28;45367;-59
2023/06/04 05:31:20;;;;;;;;;4.50;3.75;;;;;22.66;33.12;101265.22;4957342;28;45359;-59
2023/06/04 05:33:47;;;;;;;;;4.00;3.00;;;;;22.65;32.46;101261.75;4957419;28;45402;-57
2023/06/04 05:36:13;;;;;;;;;3.00;3.00;;;;;22.65;32.74;101263.56;4957525;28;45274;-61
2023/06/04 05:38:39;;;;;;;;;4.00;4.00;;;;;22.65;32.76;101260.91;4957099;28;46548;-63
2023/06/04 05:41:04;;;;;;;;;4.00;4.00;;;;;22.65;32.76;101263.56;4956966;28;45334;-62
2023/06/04 05:43:29;;;;;;;;;3.25;3.00;;;;;22.64;33.00;101267.13;4957170;28;45381;-63
2023/06/04 05:45:55;;;;;;;;;3.00;3.00;;;;;22.65;32.82;101268.84;4957202;28;45584;-65
2023/06/04 05:48:21;;;;;;;;;4.75;3.00;;;;;22.64;32.83;101272.41;4957140;28;45566;-63
2023/06/04 05:50:47;;;;;;;;;3.00;2.00;;;;;22.63;32.72;101276.84;4956508;28;58685;-63
2023/06/04 05:53:12;;;;;;;;;4.00;3.00;;;;;22.63;32.90;101278.66;4957008;28;45417;-62
2023/06/04 05:55:38;;;;;;;;;2.00;2.00;;;;;22.63;32.48;101281.28;4957090;28;45569;-61
2023/06/04 05:58:03;;;;;;;;;3.25;2.00;;;;;22.65;32.86;101292.63;4956735;28;46260;-63
2023/06/04 06:00:29;;;;;;;;;2.50;2.50;;;;;22.65;32.52;101290.81;4956997;28;45326;-63
2023/06/04 06:02:55;;;;;;;;;2.00;2.00;;;;;22.65;32.37;101289.97;4957018;28;45310;-50
2023/06/04 06:05:21;;;;;;;;;2.25;2.25;;;;;22.65;32.74;101289.97;4957185;28;45163;-64
2023/06/04 06:07:46;;;;;;;;;3.00;1.00;;;;;22.65;32.73;101287.34;4957654;28;46387;-64
2023/06/04 06:10:13;;;;;;;;;2.25;2.25;;;;;22.66;32.79;101289.00;4960072;28;45328;-63
2023/06/04 06:12:39;;;;;;;;;4.00;3.00;;;;;22.65;32.28;101296.09;4960084;28;45383;-61
2023/06/04 06:15:05;;;;;;;;;1.50;1.00;;;;;22.66;32.59;101302.22;4960256;28;45693;-64
2023/06/04 06:17:31;;;;;;;;;2.00;2.00;;;;;22.66;32.72;101297.81;4959833;28;47168;-61
2023/06/04 06:19:56;;;;;;;;;2.00;2.00;;;;;22.67;32.15;101296.00;4959983;28;45384;-57
2023/06/04 06:22:22;;;;;;;;;3.00;2.25;;;;;22.69;32.78;101305.56;4959921;28;53474;-63
2023/06/04 06:24:50;;;;;;;;;2.00;2.00;;;;;22.71;32.32;101305.47;4960127;28;45568;-55
2023/06/04 06:27:17;;;;;;;;;2.00;2.00;;;;;22.73;32.68;101305.38;4959565;28;46202;-62
2023/06/04 06:29:42;;;;;;;;;2.75;1.00;;;;;22.75;32.78;101295.56;4958207;28;45633;-60
2023/06/04 06:32:08;;;;;;;;;3.50;3.00;;;;;22.77;32.10;101309.56;4959753;28;45261;-60
2023/06/04 06:34:34;;;;;;;;;2.75;2.75;;;;;22.76;32.31;101300.78;4960062;28;45216;-64
2023/06/04 06:36:59;;;;;;;;;2.75;2.75;;;;;22.77;32.54;101304.25;4942077;28;48044;-63
2023/06/04 06:39:25;;;;;;;;;2.50;2.50;;;;;22.77;32.52;101302.47;4959731;28;45500;-62
2023/06/04 06:41:50;;;;;;;;;5.25;2.25;;;;;22.76;32.10;101307.84;4925855;28;50192;-65
2023/06/04 06:44:15;;;;;;;;;3.75;2.00;;;;;22.75;32.18;101306.13;4959642;28;45557;-63
2023/06/04 06:46:41;;;;;;;;;1.00;1.00;;;;;22.76;32.69;101306.06;4959073;28;49937;-59
2023/06/04 06:49:06;;;;;;;;;2.00;2.00;;;;;22.76;32.18;101306.06;4959245;28;45343;-63
2023/06/04 06:51:31;;;;;;;;;2.25;2.25;;;;;22.77;32.49;101307.75;4959233;28;45417;-65
2023/06/04 06:53:57;;;;;;;;;3.00;2.00;;;;;22.76;32.54;101308.72;4958600;28;45713;-65
2023/06/04 06:56:22;;;;;;;;;2.00;2.00;;;;;22.75;32.14;101308.78;4959270;28;46036;-59
2023/06/04 06:58:48;;;;;;;;;3.25;2.00;;;;;22.75;32.48;101307.00;4958617;28;60250;-65
2023/06/04 07:01:13;;;;;;;;;4.75;2.00;;;;;22.76;32.36;101305.19;4958633;28;54540;-64
2023/06/04 07:03:39;;;;;;;;;2.00;2.00;;;;;22.76;32.30;101308.72;4959289;28;45430;-64
2023/06/04 07:06:06;;;;;;;;;2.00;2.00;;;;;22.76;32.75;101307.84;4941478;28;46362;-62
2023/06/04 07:08:32;;;;;;;;;2.00;2.00;;;;;22.76;32.34;101299.91;4959015;28;45537;-64
2023/06/04 07:10:58;;;;;;;;;2.00;2.00;;;;;22.76;31.99;101306.06;4959362;28;45324;-62
2023/06/04 07:13:23;;;;;;;;;2.00;2.00;;;;;22.76;32.13;101306.06;4959709;28;45644;-69
2023/06/04 07:15:48;;;;;;;;;3.00;2.33;;;;;22.78;32.48;101305.97;4958314;28;64255;-58
2023/06/04 07:18:14;;;;;;;;;3.00;3.00;;;;;22.79;32.68;101305.88;4958323;28;52807;-62
2023/06/04 07:20:40;;;;;;;;;3.00;3.00;;;;;22.81;32.58;101311.94;4958489;28;45248;-59
2023/06/04 07:23:06;;;;;;;;;1.75;1.75;;;;;22.82;32.59;101308.34;4959095;28;45386;-62
2023/06/04 07:25:32;;;;;;;;;2.00;2.00;;;;;22.83;32.20;101307.41;4940901;28;47158;-58
2023/06/04 07:27:57;;;;;;;;;4.50;3.50;;;;;22.84;32.43;101310.88;4959060;28;45333;-58
2023/06/04 07:30:26;;;;;;;;;3.25;1.50;;;;;22.85;32.10;101312.59;4941594;28;45421;-63
2023/06/04 07:32:51;;;;;;;;;4.00;3.00;;;;;22.86;32.40;101314.31;4959246;28;45536;-61
2023/06/04 07:35:17;;;;;;;;;5.00;3.00;;;;;22.84;32.53;101310.88;4957530;28;46788;-54
2023/06/04 07:37:45;;;;;;;;;4.00;2.00;;;;;22.87;32.43;101315.16;4958071;28;45428;-54
2023/06/04 07:40:11;;;;;;;;;2.75;2.00;;;;;22.87;32.32;101310.72;4940686;28;45360;-54
2023/06/04 07:42:36;;;;;;;;;4.00;2.75;;;;;22.90;32.05;101309.69;4958507;28;45580;-57
2023/06/04 07:45:02;;;;;;;;;3.75;2.00;;;;;22.91;32.62;101316.69;4957886;28;46585;-55
2023/06/04 07:47:28;;;;;;;;;2.75;2.75;;;;;22.91;32.24;101306.97;4958394;28;45363;-57
2023/06/04 07:49:53;;;;;;;;;2.25;2.00;;;;;22.92;32.58;101305.16;4955446;28;45285;-55
2023/06/04 07:52:18;;;;;;;;;3.00;3.00;;;;;22.94;32.28;101312.06;4958130;28;45326;-51
2023/06/04 07:54:44;;;;;;;;;2.00;2.00;;;;;22.95;32.34;101310.28;4957459;28;46125;-64
2023/06/04 07:57:10;;;;;;;;;3.50;2.00;;;;;22.97;32.25;101305.75;4957587;28;45525;-56
2023/06/04 07:59:35;;;;;;;;;2.00;2.00;;;;;22.98;31.90;101303.03;4958060;28;45433;-56
2023/06/04 08:02:01;;;;;;;;;2.00;2.00;;;;;22.99;32.13;101298.56;4955737;28;45204;-61
2023/06/04 08:04:26;;;;;;;;;2.00;2.00;;;;;23.00;32.11;101297.63;4957760;28;46295;-52
2023/06/04 08:06:52;;;;;;;;;3.25;2.00;;;;;23.02;32.37;101298.41;4957507;28;45438;-60
2023/06/04 08:09:18;;;;;;;;;3.00;3.00;;;;;23.03;32.20;101294.81;4957488;28;45258;-56
2023/06/04 08:11:44;;;;;;;;;3.75;2.75;;;;;23.05;32.02;101300.88;4957892;28;45263;-65
2023/06/04 08:14:13;;;;;;;;;2.50;2.50;;;;;23.04;32.22;101291.22;4957448;28;46680;-59
2023/06/04 08:16:39;;;;;;;;;4.00;3.00;;;;;23.07;32.54;101300.78;4957291;28;45900;-64
2023/06/04 08:19:04;;;;;;;;;1.50;1.50;;;;;23.08;32.37;101300.69;4957568;28;45263;-66
2023/06/04 08:21:30;;;;;;;;;3.00;3.00;;;;;23.10;32.35;101295.31;4957946;28;45634;-67
2023/06/04 08:23:55;;;;;;;;;2.00;2.00;;;;;23.11;32.17;101297.84;4939766;28;47455;-77
2023/06/04 08:26:21;;;;;;;;;3.00;3.00;;;;;23.11;32.20;101292.56;4954731;28;45319;-74
2023/06/04 08:28:49;;;;;;;;;2.00;2.00;;;;;23.13;32.06;101292.50;4957532;28;45318;-70
2023/06/04 08:31:15;;;;;;;;;2.50;2.00;;;;;23.14;32.50;101288.91;4956488;28;45308;-71
2023/06/04 08:33:41;;;;;;;;;3.00;3.00;;;;;23.15;32.29;101290.63;4939787;28;45423;-53
2023/06/04 09:47:54;;;;;;;;;5.00;5.00;;;;;23.27;30.31;101287.25;5129395;23;45301;-44
2023/06/04 09:50:26;;;;;;;;;6.00;5.00;;;;;23.31;30.86;101286.13;4958658;28;47038;-44
2023/06/04 09:52:52;;;;;;;;;4.50;4.00;;;;;23.33;30.52;101296.59;4956933;28;45452;-48
2023/06/04 09:55:19;;;;;;;;;7.00;4.50;;;;;23.34;30.90;101298.31;4959185;28;45545;-39
2023/06/04 09:57:52;;;;;;;;;6.50;4.00;;;;;23.34;30.38;101298.31;4958389;28;45519;-40
2023/06/04 10:00:23;;;;;;;;;3.25;2.75;;;;;23.35;30.05;101309.75;4956349;28;46201;-47
2023/06/04 10:02:53;;;;;;;;;5.00;5.00;;;;;23.37;30.61;101316.66;4959398;28;45773;-50
2023/06/04 10:05:21;;;;;;;;;5.00;4.25;;;;;23.36;30.40;101299.06;4959658;28;45290;-47
2023/06/04 10:07:48;;;;;;;;;3.00;3.00;;;;;23.38;30.23;101298.97;4959837;28;45240;-48
2023/06/04 10:10:16;;;;;;;;;4.00;3.00;;;;;23.38;30.10;101306.91;4959306;28;45346;-46
2023/06/04 10:12:43;;;;;;;;;4.50;4.50;;;;;23.38;29.85;101293.69;4959772;28;45965;-46
2023/06/04 10:15:12;;;;;;;;;4.50;3.00;;;;;23.39;30.08;101298.91;4959926;28;45350;-45
2023/06/04 10:17:39;;;;;;;;;4.00;4.00;;;;;23.41;30.06;101302.31;4960054;28;45183;-50
2023/06/04 10:20:08;;;;;;;;;4.50;4.00;;;;;23.44;29.72;101298.63;4942316;28;45659;-47
2023/06/04 10:22:33;;;;;;;;;3.25;2.00;;;;;23.45;30.20;101295.03;4958934;28;45771;-53
2023/06/04 10:25:00;;;;;;;;;5.00;3.00;;;;;23.46;30.12;101296.72;4942709;28;45327;-42
2023/06/04 10:27:25;;;;;;;;;4.00;4.00;;;;;23.47;29.81;101291.34;4960423;28;45512;-49
2023/06/04 10:29:52;;;;;;;;;4.50;2.50;;;;;23.47;29.74;101296.63;4959831;28;46962;-54
2023/06/04 10:32:18;;;;;;;;;5.00;3.00;;;;;23.49;29.59;101295.69;4959571;28;45378;-46
2023/06/04 10:34:44;;;;;;;;;2.75;2.75;;;;;23.50;30.22;101300.88;4959792;28;45307;-41
2023/06/04 10:37:23;;;;;;;;;2.75;2.50;;;;;23.51;29.80;101288.50;4959705;28;45479;-48
2023/06/04 10:39:53;;;;;;;;;2.00;2.00;;;;;23.52;29.47;101292.88;4959559;28;45324;-48
2023/06/04 10:42:20;;;;;;;;;3.25;3.25;;;;;23.52;29.35;101292.88;4959484;28;45239;-51
2023/06/04 10:44:47;;;;;;;;;3.25;3.25;;;;;23.53;29.82;101292.75;4959605;28;45306;-53
2023/06/04 10:47:22;;;;;;;;;3.50;3.50;;;;;23.53;29.28;101294.56;4959544;28;45432;-53
2023/06/04 10:49:51;;;;;;;;;2.50;1.00;;;;;23.52;29.45;101290.22;4959239;28;45507;-51
2023/06/04 10:52:17;;;;;;;;;4.50;3.75;;;;;23.52;29.16;101295.50;4942031;28;45371;-50
2023/06/04 10:54:43;;;;;;;;;4.75;3.00;;;;;23.52;29.41;101301.63;4958612;28;45324;-51
2023/06/04 10:57:16;;;;;;;;;2.50;2.50;;;;;23.50;28.98;101297.38;4959473;28;45256;-48
2023/06/04 10:59:52;;;;;;;;;3.75;2.50;;;;;23.51;28.93;101299.09;4941751;28;48193;-48
2023/06/04 11:02:18;;;;;;;;;2.25;2.25;;;;;23.50;29.52;101287.66;4959036;28;45733;-54
2023/06/04 11:04:44;;;;;;;;;5.00;3.00;;;;;23.51;28.52;101307.03;4959435;28;45223;-53
2023/06/04 11:07:09;;;;;;;;;4.25;3.00;;;;;23.49;28.35;101290.41;4959488;28;45397;-53
2023/06/04 11:09:48;;;;;;;;;3.00;3.00;;;;;23.52;28.37;101298.16;4958906;28;46178;-54
2023/06/04 11:12:14;;;;;;;;;2.50;2.50;;;;;23.55;28.08;101290.00;4959034;28;45362;-53
2023/06/04 11:14:39;;;;;;;;;2.00;2.00;;;;;23.54;28.07;101296.25;4958948;28;45306;-54
2023/06/04 11:17:12;;;;;;;;;4.50;4.00;;;;;23.56;28.17;101299.66;4959415;28;45660;-54
2023/06/04 11:19:38;;;;;;;;;4.00;2.75;;;;;23.56;28.33;101295.22;4958779;28;45398;-53
2023/06/04 11:22:05;;;;;;;;;4.75;3.00;;;;;23.58;28.15;101311.88;4959152;28;45358;-47
2023/06/04 11:24:32;;;;;;;;;4.00;3.50;;;;;23.60;28.06;101303.81;4959090;28;45270;-52
2023/06/04 11:27:00;;;;;;;;;3.00;2.50;;;;;23.61;27.70;101305.53;4959263;28;45616;-46
2023/06/04 11:29:28;;;;;;;;;2.50;2.50;;;;;23.60;28.16;101298.53;4958060;28;45521;-47
2023/06/04 11:31:53;;;;;;;;;7.00;3.75;;;;;23.61;27.86;101309.00;4941346;28;45437;-40
2023/06/04 11:34:30;;;;;;;;;3.50;3.00;;;;;23.63;27.67;101303.63;4958810;28;45790;-45
2023/06/04 11:36:55;;;;;;;;;3.00;2.75;;;;;23.63;28.25;101291.25;4959227;28;45477;-50
2023/06/04 11:39:22;;;;;;;;;3.00;3.00;;;;;23.63;28.29;101303.63;4958045;28;59185;-53
2023/06/04 11:41:50;;;;;;;;;3.75;3.75;;;;;23.65;28.10;101301.72;4957198;28;45685;-52
2023/06/04 11:44:19;;;;;;;;;5.50;2.50;;;;;23.64;27.90;101302.69;4958754;28;45240;-54
2023/06/04 11:46:45;;;;;;;;;3.00;3.00;;;;;23.65;28.20;101301.72;4941435;28;45514;-53
2023/06/04 11:49:18;;;;;;;;;5.25;3.25;;;;;23.60;28.53;101296.72;4958405;28;46933;-51
2023/06/04 11:51:47;;;;;;;;;6.75;3.00;;;;;23.64;28.21;101305.34;4958398;28;45517;-53
2023/06/04 11:54:14;;;;;;;;;3.50;3.00;;;;;23.64;27.95;101302.69;4958465;28;45231;-54
2023/06/04 11:56:39;;;;;;;;;3.25;3.00;;;;;23.64;28.22;101292.13;4958144;28;45564;-52
2023/06/04 11:59:06;;;;;;;;;6.50;3.25;;;;;23.61;28.07;101301.06;4958210;28;45294;-51
2023/06/04 12:01:32;;;;;;;;;4.00;4.00;;;;;23.63;28.21;101298.34;4958360;28;45398;-41
2023/06/04 12:03:57;;;;;;;;;3.75;3.25;;;;;23.62;28.26;101302.78;4941264;28;45385;-55
2023/06/04 12:06:23;;;;;;;;;2.50;2.50;;;;;23.61;27.86;101297.59;4958190;28;45433;-55
2023/06/04 12:08:50;;;;;;;;;5.25;3.00;;;;;23.62;28.11;101300.13;4940451;28;45465;-47
2023/06/04 12:11:34;;;;;;;;;3.00;3.00;;;;;23.62;28.17;101296.66;4958305;28;45250;-54
2023/06/04 12:14:03;;;;;;;;;4.00;3.00;;;;;23.62;27.80;101288.72;4958614;28;45449;-55
2023/06/04 12:16:29;;;;;;;;;3.00;3.00;;;;;23.63;27.76;101301.00;4941415;28;45265;-50
2023/06/04 12:19:09;;;;;;;;;3.00;3.00;;;;;23.63;27.63;101285.13;4940590;28;48210;-54
2023/06/04 12:21:35;;;;;;;;;4.00;3.00;;;;;23.63;27.64;101277.19;4957823;28;45385;-48
2023/06/04 12:24:11;;;;;;;;;3.00;3.00;;;;;23.62;28.02;101275.47;4958516;28;45302;-48
2023/06/04 12:26:40;;;;;;;;;5.00;3.75;;;;;23.63;27.91;101271.88;4958350;28;45505;-54
2023/06/04 12:29:14;;;;;;;;;3.00;3.00;;;;;23.63;27.86;101278.00;4957946;28;47226;-49
2023/06/04 12:31:40;;;;;;;;;3.50;3.50;;;;;23.62;28.36;101280.78;4957819;28;45689;-48
2023/06/04 12:34:06;;;;;;;;;4.25;3.25;;;;;23.63;28.26;101271.88;4957984;28;45586;-47